McNair Village, Texas
Current Conditions -  °F | °C
As of 10:23 PM on Saturday 20 Dec 2014 (Local Time) from KHLR Reporting Station
Haze Haze  
Wind Chill: 46°   Ceiling: 900
Heat Index: 48°   Visibility: 6mi
Dew Point: 46°   Wind: 6mph
Humidity: 93%   Direction: 120°ESE
Pressure: 30.16"   Gusts: NA
Location:  31.2151°N, 97.7405°W
Report Text: KHLR 210423Z AUTO 12005KT 6SM BR BKN009 OVC025 09/08 A3016 RMK AO2 CIG 009V025 BKN V SCT
Loading
Personal Weather Stations






























Interactive Weather Map New forecast layout! Learn more

10-Day Weather Forecast

Advertisements
Track Severe Weather on mobile